sensor_id;sensor_type;location;lat;lon;timestamp;P1;durP1;ratioP1;P2;durP2;ratioP2
38037;SDS011;23843;51.320;12.340;2024-03-07T00:02:00;3.83;;;2.20;;
38037;SDS011;23843;51.320;12.340;2024-03-07T00:04:46;4.87;;;2.57;;
38037;SDS011;23843;51.320;12.340;2024-03-07T00:07:31;9.03;;;4.57;;
38037;SDS011;23843;51.320;12.340;2024-03-07T00:10:18;15.77;;;7.07;;
38037;SDS011;23843;51.320;12.340;2024-03-07T00:13:04;13.87;;;6.40;;
38037;SDS011;23843;51.320;12.340;2024-03-07T00:15:49;9.80;;;4.97;;
38037;SDS011;23843;51.320;12.340;2024-03-07T00:18:35;7.67;;;4.30;;
38037;SDS011;23843;51.320;12.340;2024-03-07T00:21:20;6.97;;;3.57;;
38037;SDS011;23843;51.320;12.340;2024-03-07T00:24:08;6.47;;;3.17;;
38037;SDS011;23843;51.320;12.340;2024-03-07T00:26:55;6.37;;;3.37;;
38037;SDS011;23843;51.320;12.340;2024-03-07T00:29:40;7.17;;;3.00;;
38037;SDS011;23843;51.320;12.340;2024-03-07T00:32:26;6.13;;;3.30;;
38037;SDS011;23843;51.320;12.340;2024-03-07T00:35:12;4.07;;;2.60;;
38037;SDS011;23843;51.320;12.340;2024-03-07T00:37:57;4.77;;;2.30;;
38037;SDS011;23843;51.320;12.340;2024-03-07T00:40:43;5.67;;;3.00;;
38037;SDS011;23843;51.320;12.340;2024-03-07T00:43:29;9.53;;;4.93;;
38037;SDS011;23843;51.320;12.340;2024-03-07T00:46:15;10.53;;;5.23;;
38037;SDS011;23843;51.320;12.340;2024-03-07T00:49:00;9.40;;;4.50;;
38037;SDS011;23843;51.320;12.340;2024-03-07T00:51:46;6.00;;;3.20;;
38037;SDS011;23843;51.320;12.340;2024-03-07T00:54:31;5.27;;;2.80;;
38037;SDS011;23843;51.320;12.340;2024-03-07T00:57:18;6.40;;;3.10;;
38037;SDS011;23843;51.320;12.340;2024-03-07T01:00:05;3.87;;;1.90;;
38037;SDS011;23843;51.320;12.340;2024-03-07T01:02:52;3.43;;;1.90;;
38037;SDS011;23843;51.320;12.340;2024-03-07T01:05:37;2.10;;;1.27;;
38037;SDS011;23843;51.320;12.340;2024-03-07T01:08:23;3.07;;;1.67;;
38037;SDS011;23843;51.320;12.340;2024-03-07T01:11:08;2.60;;;1.50;;
38037;SDS011;23843;51.320;12.340;2024-03-07T01:13:54;2.37;;;1.17;;
38037;SDS011;23843;51.320;12.340;2024-03-07T01:16:41;2.57;;;1.17;;
38037;SDS011;23843;51.320;12.340;2024-03-07T01:19:26;1.73;;;1.10;;
38037;SDS011;23843;51.320;12.340;2024-03-07T01:22:12;2.77;;;1.30;;
38037;SDS011;23843;51.320;12.340;2024-03-07T01:24:57;3.10;;;1.30;;
38037;SDS011;23843;51.320;12.340;2024-03-07T01:27:43;3.30;;;1.50;;
38037;SDS011;23843;51.320;12.340;2024-03-07T01:30:31;2.47;;;1.60;;
38037;SDS011;23843;51.320;12.340;2024-03-07T01:33:17;2.20;;;1.30;;
38037;SDS011;23843;51.320;12.340;2024-03-07T01:36:05;3.93;;;1.70;;
38037;SDS011;23843;51.320;12.340;2024-03-07T01:38:51;3.20;;;2.03;;
38037;SDS011;23843;51.320;12.340;2024-03-07T01:41:36;3.43;;;1.83;;
38037;SDS011;23843;51.320;12.340;2024-03-07T01:44:22;2.83;;;1.40;;
38037;SDS011;23843;51.320;12.340;2024-03-07T01:47:07;1.97;;;1.20;;
38037;SDS011;23843;51.320;12.340;2024-03-07T01:49:54;2.83;;;1.60;;
38037;SDS011;23843;51.320;12.340;2024-03-07T01:52:40;3.03;;;1.67;;
38037;SDS011;23843;51.320;12.340;2024-03-07T01:55:27;2.57;;;1.60;;
38037;SDS011;23843;51.320;12.340;2024-03-07T01:58:13;2.50;;;1.50;;
38037;SDS011;23843;51.320;12.340;2024-03-07T02:01:02;3.60;;;1.70;;
38037;SDS011;23843;51.320;12.340;2024-03-07T02:03:48;3.13;;;1.80;;
38037;SDS011;23843;51.320;12.340;2024-03-07T02:06:35;2.83;;;1.60;;
38037;SDS011;23843;51.320;12.340;2024-03-07T02:09:20;4.40;;;2.17;;
38037;SDS011;23843;51.320;12.340;2024-03-07T02:12:06;3.83;;;1.97;;
38037;SDS011;23843;51.320;12.340;2024-03-07T02:14:55;3.90;;;1.70;;
38037;SDS011;23843;51.320;12.340;2024-03-07T02:17:41;2.80;;;1.50;;
38037;SDS011;23843;51.320;12.340;2024-03-07T02:20:26;2.80;;;1.50;;
38037;SDS011;23843;51.320;12.340;2024-03-07T02:23:13;2.20;;;1.27;;
38037;SDS011;23843;51.320;12.340;2024-03-07T02:25:59;2.13;;;1.20;;
38037;SDS011;23843;51.320;12.340;2024-03-07T02:28:44;2.07;;;1.30;;
38037;SDS011;23843;51.320;12.340;2024-03-07T02:31:29;3.47;;;1.80;;
38037;SDS011;23843;51.320;12.340;2024-03-07T02:34:15;2.63;;;1.57;;
38037;SDS011;23843;51.320;12.340;2024-03-07T02:37:00;2.60;;;1.30;;
38037;SDS011;23843;51.320;12.340;2024-03-07T02:39:47;2.80;;;1.50;;
38037;SDS011;23843;51.320;12.340;2024-03-07T02:42:33;4.13;;;2.40;;
38037;SDS011;23843;51.320;12.340;2024-03-07T02:45:18;3.27;;;1.57;;
38037;SDS011;23843;51.320;12.340;2024-03-07T02:48:04;2.27;;;1.50;;
38037;SDS011;23843;51.320;12.340;2024-03-07T02:50:50;2.10;;;1.27;;
38037;SDS011;23843;51.320;12.340;2024-03-07T02:53:35;3.50;;;1.70;;
38037;SDS011;23843;51.320;12.340;2024-03-07T02:56:22;3.07;;;1.57;;
38037;SDS011;23843;51.320;12.340;2024-03-07T02:59:08;2.77;;;1.60;;
38037;SDS011;23843;51.320;12.340;2024-03-07T03:01:53;3.23;;;1.63;;
38037;SDS011;23843;51.320;12.340;2024-03-07T03:04:38;3.60;;;1.60;;
38037;SDS011;23843;51.320;12.340;2024-03-07T03:07:24;2.27;;;1.43;;
38037;SDS011;23843;51.320;12.340;2024-03-07T03:10:09;1.90;;;1.20;;
38037;SDS011;23843;51.320;12.340;2024-03-07T03:12:56;3.53;;;1.80;;
38037;SDS011;23843;51.320;12.340;2024-03-07T03:15:42;7.33;;;3.33;;
38037;SDS011;23843;51.320;12.340;2024-03-07T03:18:28;7.50;;;3.90;;
38037;SDS011;23843;51.320;12.340;2024-03-07T03:21:13;11.20;;;5.87;;
38037;SDS011;23843;51.320;12.340;2024-03-07T03:23:59;7.43;;;3.70;;
38037;SDS011;23843;51.320;12.340;2024-03-07T03:26:44;9.97;;;4.83;;
38037;SDS011;23843;51.320;12.340;2024-03-07T03:29:31;9.37;;;5.03;;
38037;SDS011;23843;51.320;12.340;2024-03-07T03:32:17;8.60;;;5.07;;
38037;SDS011;23843;51.320;12.340;2024-03-07T03:35:02;8.23;;;3.93;;
38037;SDS011;23843;51.320;12.340;2024-03-07T03:37:48;6.33;;;3.17;;
38037;SDS011;23843;51.320;12.340;2024-03-07T03:40:34;4.73;;;2.47;;
38037;SDS011;23843;51.320;12.340;2024-03-07T03:43:20;5.33;;;2.80;;
38037;SDS011;23843;51.320;12.340;2024-03-07T03:46:06;4.20;;;2.60;;
38037;SDS011;23843;51.320;12.340;2024-03-07T03:48:54;13.20;;;5.50;;
38037;SDS011;23843;51.320;12.340;2024-03-07T03:51:40;8.73;;;5.13;;
38037;SDS011;23843;51.320;12.340;2024-03-07T03:54:25;6.43;;;3.13;;
38037;SDS011;23843;51.320;12.340;2024-03-07T03:57:11;7.50;;;3.20;;
38037;SDS011;23843;51.320;12.340;2024-03-07T03:59:56;6.10;;;3.40;;
38037;SDS011;23843;51.320;12.340;2024-03-07T04:02:44;4.53;;;2.43;;
38037;SDS011;23843;51.320;12.340;2024-03-07T04:05:30;4.27;;;2.60;;
38037;SDS011;23843;51.320;12.340;2024-03-07T04:08:15;6.60;;;3.20;;
38037;SDS011;23843;51.320;12.340;2024-03-07T04:11:01;7.73;;;3.80;;
38037;SDS011;23843;51.320;12.340;2024-03-07T04:13:46;4.60;;;2.80;;
38037;SDS011;23843;51.320;12.340;2024-03-07T04:16:32;7.07;;;3.67;;
38037;SDS011;23843;51.320;12.340;2024-03-07T04:19:18;6.13;;;3.00;;
38037;SDS011;23843;51.320;12.340;2024-03-07T04:22:04;8.47;;;4.70;;
38037;SDS011;23843;51.320;12.340;2024-03-07T04:24:49;8.53;;;4.13;;
38037;SDS011;23843;51.320;12.340;2024-03-07T04:27:35;6.37;;;3.37;;
38037;SDS011;23843;51.320;12.340;2024-03-07T04:30:21;10.63;;;4.57;;
38037;SDS011;23843;51.320;12.340;2024-03-07T04:33:06;8.80;;;4.50;;
38037;SDS011;23843;51.320;12.340;2024-03-07T04:35:53;9.17;;;5.10;;
38037;SDS011;23843;51.320;12.340;2024-03-07T04:38:38;7.47;;;4.20;;
38037;SDS011;23843;51.320;12.340;2024-03-07T04:41:24;14.63;;;6.87;;
38037;SDS011;23843;51.320;12.340;2024-03-07T04:44:09;19.30;;;9.80;;
38037;SDS011;23843;51.320;12.340;2024-03-07T04:46:55;17.20;;;8.97;;
38037;SDS011;23843;51.320;12.340;2024-03-07T04:49:40;17.13;;;8.70;;
38037;SDS011;23843;51.320;12.340;2024-03-07T04:52:27;12.87;;;6.60;;
38037;SDS011;23843;51.320;12.340;2024-03-07T04:55:12;11.13;;;5.47;;
38037;SDS011;23843;51.320;12.340;2024-03-07T04:57:58;8.37;;;4.87;;
38037;SDS011;23843;51.320;12.340;2024-03-07T05:00:44;8.80;;;5.00;;
38037;SDS011;23843;51.320;12.340;2024-03-07T05:03:29;9.90;;;4.90;;
38037;SDS011;23843;51.320;12.340;2024-03-07T05:06:15;12.23;;;6.87;;
38037;SDS011;23843;51.320;12.340;2024-03-07T05:09:01;15.03;;;7.50;;
38037;SDS011;23843;51.320;12.340;2024-03-07T05:11:47;19.50;;;9.80;;
38037;SDS011;23843;51.320;12.340;2024-03-07T05:14:33;13.17;;;6.90;;
38037;SDS011;23843;51.320;12.340;2024-03-07T05:17:19;17.13;;;8.60;;
38037;SDS011;23843;51.320;12.340;2024-03-07T05:20:05;16.13;;;8.83;;
38037;SDS011;23843;51.320;12.340;2024-03-07T05:22:51;20.73;;;9.07;;
38037;SDS011;23843;51.320;12.340;2024-03-07T05:25:38;18.93;;;9.53;;
38037;SDS011;23843;51.320;12.340;2024-03-07T05:28:23;19.23;;;10.40;;
38037;SDS011;23843;51.320;12.340;2024-03-07T05:31:09;18.93;;;10.60;;
38037;SDS011;23843;51.320;12.340;2024-03-07T05:33:54;16.47;;;9.30;;
38037;SDS011;23843;51.320;12.340;2024-03-07T05:36:40;15.10;;;8.87;;
38037;SDS011;23843;51.320;12.340;2024-03-07T05:39:25;12.07;;;6.97;;
38037;SDS011;23843;51.320;12.340;2024-03-07T05:42:12;16.00;;;8.90;;
38037;SDS011;23843;51.320;12.340;2024-03-07T05:44:58;21.13;;;10.77;;
38037;SDS011;23843;51.320;12.340;2024-03-07T05:47:43;20.87;;;12.27;;
38037;SDS011;23843;51.320;12.340;2024-03-07T05:50:29;21.13;;;12.73;;
38037;SDS011;23843;51.320;12.340;2024-03-07T05:53:14;17.93;;;11.17;;
38037;SDS011;23843;51.320;12.340;2024-03-07T05:55:59;15.63;;;8.93;;
38037;SDS011;23843;51.320;12.340;2024-03-07T05:58:46;11.80;;;6.97;;
38037;SDS011;23843;51.320;12.340;2024-03-07T06:01:34;15.23;;;8.70;;
38037;SDS011;23843;51.320;12.340;2024-03-07T06:04:23;16.17;;;9.23;;
38037;SDS011;23843;51.320;12.340;2024-03-07T06:07:08;16.37;;;9.33;;
38037;SDS011;23843;51.320;12.340;2024-03-07T06:09:54;14.93;;;9.17;;
38037;SDS011;23843;51.320;12.340;2024-03-07T06:12:39;14.87;;;9.53;;
38037;SDS011;23843;51.320;12.340;2024-03-07T06:15:26;13.83;;;8.40;;
38037;SDS011;23843;51.320;12.340;2024-03-07T06:18:12;11.17;;;6.57;;
38037;SDS011;23843;51.320;12.340;2024-03-07T06:20:57;14.70;;;8.93;;
38037;SDS011;23843;51.320;12.340;2024-03-07T06:23:43;11.30;;;6.53;;
38037;SDS011;23843;51.320;12.340;2024-03-07T06:26:30;14.17;;;7.93;;
38037;SDS011;23843;51.320;12.340;2024-03-07T06:29:16;10.23;;;6.17;;
38037;SDS011;23843;51.320;12.340;2024-03-07T06:32:04;12.33;;;7.07;;
38037;SDS011;23843;51.320;12.340;2024-03-07T06:34:50;14.27;;;7.50;;
38037;SDS011;23843;51.320;12.340;2024-03-07T06:37:36;16.00;;;9.23;;
38037;SDS011;23843;51.320;12.340;2024-03-07T06:40:22;16.03;;;9.30;;
38037;SDS011;23843;51.320;12.340;2024-03-07T06:43:08;16.70;;;9.40;;
38037;SDS011;23843;51.320;12.340;2024-03-07T06:45:54;14.83;;;8.87;;
38037;SDS011;23843;51.320;12.340;2024-03-07T06:48:41;16.83;;;10.13;;
38037;SDS011;23843;51.320;12.340;2024-03-07T06:51:27;16.30;;;9.10;;
38037;SDS011;23843;51.320;12.340;2024-03-07T06:54:13;15.30;;;9.17;;
38037;SDS011;23843;51.320;12.340;2024-03-07T06:56:59;20.93;;;11.13;;
38037;SDS011;23843;51.320;12.340;2024-03-07T06:59:44;15.60;;;9.23;;
38037;SDS011;23843;51.320;12.340;2024-03-07T07:02:30;21.37;;;12.80;;
38037;SDS011;23843;51.320;12.340;2024-03-07T07:05:18;18.47;;;10.70;;
38037;SDS011;23843;51.320;12.340;2024-03-07T07:08:04;21.63;;;11.90;;
38037;SDS011;23843;51.320;12.340;2024-03-07T07:10:50;17.53;;;10.13;;
38037;SDS011;23843;51.320;12.340;2024-03-07T07:13:35;13.13;;;7.90;;
38037;SDS011;23843;51.320;12.340;2024-03-07T07:16:21;12.40;;;7.43;;
38037;SDS011;23843;51.320;12.340;2024-03-07T07:19:07;10.43;;;6.77;;
38037;SDS011;23843;51.320;12.340;2024-03-07T07:21:54;11.77;;;6.80;;
38037;SDS011;23843;51.320;12.340;2024-03-07T07:24:40;13.07;;;8.47;;
38037;SDS011;23843;51.320;12.340;2024-03-07T07:27:26;20.83;;;12.40;;
38037;SDS011;23843;51.320;12.340;2024-03-07T07:30:12;16.60;;;10.50;;
38037;SDS011;23843;51.320;12.340;2024-03-07T07:32:59;14.07;;;8.50;;
38037;SDS011;23843;51.320;12.340;2024-03-07T07:35:45;17.00;;;9.70;;
38037;SDS011;23843;51.320;12.340;2024-03-07T07:38:32;18.70;;;10.27;;
38037;SDS011;23843;51.320;12.340;2024-03-07T07:41:17;16.63;;;9.70;;
38037;SDS011;23843;51.320;12.340;2024-03-07T07:44:03;14.40;;;7.93;;
38037;SDS011;23843;51.320;12.340;2024-03-07T07:46:49;11.50;;;7.43;;
38037;SDS011;23843;51.320;12.340;2024-03-07T07:49:35;13.67;;;8.00;;
38037;SDS011;23843;51.320;12.340;2024-03-07T07:52:21;10.20;;;5.83;;
38037;SDS011;23843;51.320;12.340;2024-03-07T07:55:20;7.50;;;4.60;;
38037;SDS011;23843;51.320;12.340;2024-03-07T07:58:07;12.57;;;7.63;;
38037;SDS011;23843;51.320;12.340;2024-03-07T08:00:52;17.37;;;10.70;;
38037;SDS011;23843;51.320;12.340;2024-03-07T08:03:38;12.50;;;8.00;;
38037;SDS011;23843;51.320;12.340;2024-03-07T08:06:23;9.43;;;6.50;;
38037;SDS011;23843;51.320;12.340;2024-03-07T08:09:08;15.27;;;7.73;;
38037;SDS011;23843;51.320;12.340;2024-03-07T08:11:55;14.97;;;8.30;;
38037;SDS011;23843;51.320;12.340;2024-03-07T08:14:41;13.33;;;8.27;;
38037;SDS011;23843;51.320;12.340;2024-03-07T08:17:26;12.80;;;7.33;;
38037;SDS011;23843;51.320;12.340;2024-03-07T08:20:12;12.17;;;7.73;;
38037;SDS011;23843;51.320;12.340;2024-03-07T08:22:58;8.27;;;5.17;;
38037;SDS011;23843;51.320;12.340;2024-03-07T08:25:44;8.80;;;4.80;;
38037;SDS011;23843;51.320;12.340;2024-03-07T08:28:30;9.97;;;5.97;;
38037;SDS011;23843;51.320;12.340;2024-03-07T08:31:16;7.97;;;5.00;;
38037;SDS011;23843;51.320;12.340;2024-03-07T08:34:01;8.73;;;5.53;;
38037;SDS011;23843;51.320;12.340;2024-03-07T08:36:47;10.80;;;7.00;;
38037;SDS011;23843;51.320;12.340;2024-03-07T08:39:32;10.47;;;6.60;;
38037;SDS011;23843;51.320;12.340;2024-03-07T08:42:18;10.80;;;6.57;;
38037;SDS011;23843;51.320;12.340;2024-03-07T08:45:05;10.50;;;5.97;;
38037;SDS011;23843;51.320;12.340;2024-03-07T08:47:51;12.73;;;8.50;;
38037;SDS011;23843;51.320;12.340;2024-03-07T08:50:37;14.40;;;8.87;;
38037;SDS011;23843;51.320;12.340;2024-03-07T08:53:23;11.00;;;6.17;;
38037;SDS011;23843;51.320;12.340;2024-03-07T08:56:08;11.60;;;7.27;;
38037;SDS011;23843;51.320;12.340;2024-03-07T08:58:54;9.37;;;5.90;;
38037;SDS011;23843;51.320;12.340;2024-03-07T09:01:40;9.97;;;5.73;;
38037;SDS011;23843;51.320;12.340;2024-03-07T09:04:26;11.83;;;6.67;;
38037;SDS011;23843;51.320;12.340;2024-03-07T09:07:11;7.50;;;5.20;;
38037;SDS011;23843;51.320;12.340;2024-03-07T09:09:57;6.97;;;4.47;;
38037;SDS011;23843;51.320;12.340;2024-03-07T09:12:43;6.63;;;4.73;;
38037;SDS011;23843;51.320;12.340;2024-03-07T09:15:29;5.63;;;3.60;;
38037;SDS011;23843;51.320;12.340;2024-03-07T09:18:16;11.13;;;5.50;;
38037;SDS011;23843;51.320;12.340;2024-03-07T09:21:02;7.57;;;5.00;;
38037;SDS011;23843;51.320;12.340;2024-03-07T09:23:47;7.40;;;4.87;;
38037;SDS011;23843;51.320;12.340;2024-03-07T09:26:33;9.07;;;5.80;;
38037;SDS011;23843;51.320;12.340;2024-03-07T09:29:19;7.90;;;5.10;;
38037;SDS011;23843;51.320;12.340;2024-03-07T09:32:05;7.10;;;4.57;;
38037;SDS011;23843;51.320;12.340;2024-03-07T09:34:52;8.50;;;5.70;;
38037;SDS011;23843;51.320;12.340;2024-03-07T09:37:38;9.77;;;5.87;;
38037;SDS011;23843;51.320;12.340;2024-03-07T09:40:24;7.90;;;5.20;;
38037;SDS011;23843;51.320;12.340;2024-03-07T09:43:11;7.90;;;5.00;;
38037;SDS011;23843;51.320;12.340;2024-03-07T09:45:58;7.20;;;4.70;;
38037;SDS011;23843;51.320;12.340;2024-03-07T09:48:44;7.63;;;5.03;;
38037;SDS011;23843;51.320;12.340;2024-03-07T09:51:31;9.07;;;5.50;;
38037;SDS011;23843;51.320;12.340;2024-03-07T09:54:18;12.10;;;6.00;;
38037;SDS011;23843;51.320;12.340;2024-03-07T09:57:04;6.87;;;4.37;;
38037;SDS011;23843;51.320;12.340;2024-03-07T09:59:51;5.00;;;3.27;;
38037;SDS011;23843;51.320;12.340;2024-03-07T10:02:38;8.63;;;5.40;;
38037;SDS011;23843;51.320;12.340;2024-03-07T10:05:26;10.03;;;6.33;;
38037;SDS011;23843;51.320;12.340;2024-03-07T10:08:13;8.20;;;5.43;;
38037;SDS011;23843;51.320;12.340;2024-03-07T10:10:59;7.83;;;4.67;;
38037;SDS011;23843;51.320;12.340;2024-03-07T10:13:44;8.17;;;5.40;;
38037;SDS011;23843;51.320;12.340;2024-03-07T10:16:30;8.07;;;5.07;;
38037;SDS011;23843;51.320;12.340;2024-03-07T10:19:15;9.57;;;5.60;;
38037;SDS011;23843;51.320;12.340;2024-03-07T10:22:01;11.80;;;5.70;;
38037;SDS011;23843;51.320;12.340;2024-03-07T10:24:51;5.40;;;3.70;;
38037;SDS011;23843;51.320;12.340;2024-03-07T10:27:37;5.83;;;3.80;;
38037;SDS011;23843;51.320;12.340;2024-03-07T10:30:23;7.83;;;4.90;;
38037;SDS011;23843;51.320;12.340;2024-03-07T10:33:08;8.20;;;5.93;;
38037;SDS011;23843;51.320;12.340;2024-03-07T10:35:54;12.77;;;7.13;;
38037;SDS011;23843;51.320;12.340;2024-03-07T10:38:39;10.53;;;6.23;;
38037;SDS011;23843;51.320;12.340;2024-03-07T10:41:27;10.07;;;6.03;;
38037;SDS011;23843;51.320;12.340;2024-03-07T10:44:15;12.60;;;7.70;;
38037;SDS011;23843;51.320;12.340;2024-03-07T10:47:04;10.23;;;6.60;;
38037;SDS011;23843;51.320;12.340;2024-03-07T10:49:54;10.23;;;6.03;;
38037;SDS011;23843;51.320;12.340;2024-03-07T10:52:47;11.73;;;7.77;;
38037;SDS011;23843;51.320;12.340;2024-03-07T10:55:38;12.83;;;7.47;;
38037;SDS011;23843;51.320;12.340;2024-03-07T10:58:37;11.63;;;6.90;;
38037;SDS011;23843;51.320;12.340;2024-03-07T11:01:29;8.97;;;5.60;;
38037;SDS011;23843;51.320;12.340;2024-03-07T11:04:16;10.17;;;5.97;;
38037;SDS011;23843;51.320;12.340;2024-03-07T11:07:03;10.70;;;7.10;;
38037;SDS011;23843;51.320;12.340;2024-03-07T11:09:49;11.20;;;6.37;;
38037;SDS011;23843;51.320;12.340;2024-03-07T11:12:36;9.70;;;5.63;;
38037;SDS011;23843;51.320;12.340;2024-03-07T11:15:24;13.70;;;8.23;;
38037;SDS011;23843;51.320;12.340;2024-03-07T11:18:12;13.17;;;7.27;;
38037;SDS011;23843;51.320;12.340;2024-03-07T11:20:58;10.23;;;6.27;;
38037;SDS011;23843;51.320;12.340;2024-03-07T11:23:44;8.07;;;5.27;;
38037;SDS011;23843;51.320;12.340;2024-03-07T11:26:30;8.37;;;5.17;;
38037;SDS011;23843;51.320;12.340;2024-03-07T11:32:28;12.30;;;6.57;;
38037;SDS011;23843;51.320;12.340;2024-03-07T11:35:14;12.07;;;6.83;;
38037;SDS011;23843;51.320;12.340;2024-03-07T11:38:00;11.97;;;6.77;;
38037;SDS011;23843;51.320;12.340;2024-03-07T11:40:46;10.93;;;6.70;;
38037;SDS011;23843;51.320;12.340;2024-03-07T11:43:35;10.70;;;6.30;;
38037;SDS011;23843;51.320;12.340;2024-03-07T11:46:20;10.53;;;5.97;;
38037;SDS011;23843;51.320;12.340;2024-03-07T11:49:07;11.00;;;6.90;;
38037;SDS011;23843;51.320;12.340;2024-03-07T11:51:53;10.20;;;5.80;;
38037;SDS011;23843;51.320;12.340;2024-03-07T11:54:38;8.40;;;5.40;;
38037;SDS011;23843;51.320;12.340;2024-03-07T11:57:24;10.30;;;6.27;;
38037;SDS011;23843;51.320;12.340;2024-03-07T12:00:10;9.53;;;6.37;;
38037;SDS011;23843;51.320;12.340;2024-03-07T12:02:56;13.80;;;8.37;;
38037;SDS011;23843;51.320;12.340;2024-03-07T12:05:43;14.60;;;8.10;;
38037;SDS011;23843;51.320;12.340;2024-03-07T12:08:29;11.17;;;6.63;;
38037;SDS011;23843;51.320;12.340;2024-03-07T12:11:14;14.40;;;9.10;;
38037;SDS011;23843;51.320;12.340;2024-03-07T12:14:00;12.63;;;7.67;;
38037;SDS011;23843;51.320;12.340;2024-03-07T12:16:46;10.90;;;7.20;;
38037;SDS011;23843;51.320;12.340;2024-03-07T12:19:32;13.80;;;8.03;;
38037;SDS011;23843;51.320;12.340;2024-03-07T12:22:20;13.30;;;7.47;;
38037;SDS011;23843;51.320;12.340;2024-03-07T12:25:06;9.57;;;6.23;;
38037;SDS011;23843;51.320;12.340;2024-03-07T12:28:02;11.13;;;6.23;;
38037;SDS011;23843;51.320;12.340;2024-03-07T12:30:49;9.70;;;5.70;;
38037;SDS011;23843;51.320;12.340;2024-03-07T12:33:35;7.30;;;3.80;;
38037;SDS011;23843;51.320;12.340;2024-03-07T12:36:21;10.97;;;6.10;;
38037;SDS011;23843;51.320;12.340;2024-03-07T12:39:08;12.03;;;8.30;;
38037;SDS011;23843;51.320;12.340;2024-03-07T12:41:55;11.00;;;7.30;;
38037;SDS011;23843;51.320;12.340;2024-03-07T12:44:41;13.70;;;8.00;;
38037;SDS011;23843;51.320;12.340;2024-03-07T12:47:27;12.47;;;7.40;;
38037;SDS011;23843;51.320;12.340;2024-03-07T12:50:12;11.30;;;6.57;;
38037;SDS011;23843;51.320;12.340;2024-03-07T12:52:58;8.93;;;5.50;;
38037;SDS011;23843;51.320;12.340;2024-03-07T12:55:45;8.80;;;6.10;;
38037;SDS011;23843;51.320;12.340;2024-03-07T12:58:30;10.93;;;6.33;;
38037;SDS011;23843;51.320;12.340;2024-03-07T13:01:16;7.70;;;5.60;;
38037;SDS011;23843;51.320;12.340;2024-03-07T13:03:53;11.87;;;7.60;;
38037;SDS011;23843;51.320;12.340;2024-03-07T13:06:38;11.90;;;7.17;;
38037;SDS011;23843;51.320;12.340;2024-03-07T13:09:24;14.73;;;8.27;;
38037;SDS011;23843;51.320;12.340;2024-03-07T13:12:10;15.17;;;8.93;;
38037;SDS011;23843;51.320;12.340;2024-03-07T13:14:56;13.97;;;7.17;;
38037;SDS011;23843;51.320;12.340;2024-03-07T13:17:41;10.83;;;6.43;;
38037;SDS011;23843;51.320;12.340;2024-03-07T13:20:27;10.57;;;6.90;;
38037;SDS011;23843;51.320;12.340;2024-03-07T13:23:12;10.37;;;6.13;;
38037;SDS011;23843;51.320;12.340;2024-03-07T13:25:58;11.40;;;7.47;;
38037;SDS011;23843;51.320;12.340;2024-03-07T13:28:45;11.13;;;7.23;;
38037;SDS011;23843;51.320;12.340;2024-03-07T13:31:31;10.83;;;6.70;;
38037;SDS011;23843;51.320;12.340;2024-03-07T13:34:16;13.10;;;7.33;;
38037;SDS011;23843;51.320;12.340;2024-03-07T13:37:02;11.20;;;7.27;;
38037;SDS011;23843;51.320;12.340;2024-03-07T13:39:48;9.63;;;6.17;;
38037;SDS011;23843;51.320;12.340;2024-03-07T13:42:33;10.27;;;6.87;;
38037;SDS011;23843;51.320;12.340;2024-03-07T13:45:21;12.17;;;7.77;;
38037;SDS011;23843;51.320;12.340;2024-03-07T13:48:07;8.70;;;5.50;;
38037;SDS011;23843;51.320;12.340;2024-03-07T13:50:54;10.87;;;6.43;;
38037;SDS011;23843;51.320;12.340;2024-03-07T13:53:40;9.97;;;6.27;;
38037;SDS011;23843;51.320;12.340;2024-03-07T13:56:29;7.53;;;5.07;;
38037;SDS011;23843;51.320;12.340;2024-03-07T14:06:02;9.37;;;5.97;;
38037;SDS011;23843;51.320;12.340;2024-03-07T14:11:52;8.43;;;5.20;;
38037;SDS011;23843;51.320;12.340;2024-03-07T14:14:50;10.23;;;6.40;;
38037;SDS011;23843;51.320;12.340;2024-03-07T14:17:52;7.40;;;4.20;;
38037;SDS011;23843;51.320;12.340;2024-03-07T14:20:46;6.03;;;3.90;;
38037;SDS011;23843;51.320;12.340;2024-03-07T14:23:26;6.77;;;3.53;;
38037;SDS011;23843;51.320;12.340;2024-03-07T14:26:28;6.10;;;4.20;;
38037;SDS011;23843;51.320;12.340;2024-03-07T14:29:12;10.13;;;5.73;;
38037;SDS011;23843;51.320;12.340;2024-03-07T14:31:46;11.07;;;6.80;;
38037;SDS011;23843;51.320;12.340;2024-03-07T14:34:12;9.37;;;5.40;;
38037;SDS011;23843;51.320;12.340;2024-03-07T14:36:47;9.47;;;5.10;;
38037;SDS011;23843;51.320;12.340;2024-03-07T14:39:18;9.63;;;5.80;;
38037;SDS011;23843;51.320;12.340;2024-03-07T14:41:48;9.87;;;5.90;;
38037;SDS011;23843;51.320;12.340;2024-03-07T14:44:16;13.93;;;8.67;;
38037;SDS011;23843;51.320;12.340;2024-03-07T14:46:42;12.17;;;6.87;;
38037;SDS011;23843;51.320;12.340;2024-03-07T14:49:09;12.67;;;6.63;;
38037;SDS011;23843;51.320;12.340;2024-03-07T14:51:38;10.43;;;7.10;;
38037;SDS011;23843;51.320;12.340;2024-03-07T14:54:06;10.33;;;6.00;;
38037;SDS011;23843;51.320;12.340;2024-03-07T14:56:32;9.17;;;5.70;;
38037;SDS011;23843;51.320;12.340;2024-03-07T14:58:57;8.17;;;5.20;;
38037;SDS011;23843;51.320;12.340;2024-03-07T15:01:23;9.27;;;6.57;;
38037;SDS011;23843;51.320;12.340;2024-03-07T15:03:48;9.00;;;4.87;;
38037;SDS011;23843;51.320;12.340;2024-03-07T15:06:14;9.73;;;6.20;;
38037;SDS011;23843;51.320;12.340;2024-03-07T15:08:40;9.17;;;5.40;;
38037;SDS011;23843;51.320;12.340;2024-03-07T15:11:07;10.13;;;5.70;;
38037;SDS011;23843;51.320;12.340;2024-03-07T15:13:37;6.60;;;4.43;;
38037;SDS011;23843;51.320;12.340;2024-03-07T15:16:02;7.57;;;4.80;;
38037;SDS011;23843;51.320;12.340;2024-03-07T15:18:28;11.97;;;7.10;;
38037;SDS011;23843;51.320;12.340;2024-03-07T15:20:54;9.50;;;5.67;;
38037;SDS011;23843;51.320;12.340;2024-03-07T15:23:20;11.30;;;6.70;;
38037;SDS011;23843;51.320;12.340;2024-03-07T15:25:45;13.97;;;8.33;;
38037;SDS011;23843;51.320;12.340;2024-03-07T15:28:12;8.77;;;5.27;;
38037;SDS011;23843;51.320;12.340;2024-03-07T15:30:38;5.40;;;3.80;;
38037;SDS011;23843;51.320;12.340;2024-03-07T15:33:03;4.53;;;2.93;;
38037;SDS011;23843;51.320;12.340;2024-03-07T15:35:30;6.10;;;3.93;;
38037;SDS011;23843;51.320;12.340;2024-03-07T15:37:55;8.97;;;6.17;;
38037;SDS011;23843;51.320;12.340;2024-03-07T15:40:21;7.73;;;4.73;;
38037;SDS011;23843;51.320;12.340;2024-03-07T15:42:47;5.80;;;4.27;;
38037;SDS011;23843;51.320;12.340;2024-03-07T15:45:15;7.63;;;5.17;;
38037;SDS011;23843;51.320;12.340;2024-03-07T15:47:42;7.33;;;5.40;;
38037;SDS011;23843;51.320;12.340;2024-03-07T15:50:08;8.43;;;5.03;;
38037;SDS011;23843;51.320;12.340;2024-03-07T15:52:34;8.97;;;4.93;;
38037;SDS011;23843;51.320;12.340;2024-03-07T15:54:59;5.70;;;3.83;;
38037;SDS011;23843;51.320;12.340;2024-03-07T15:57:25;6.23;;;3.70;;
38037;SDS011;23843;51.320;12.340;2024-03-07T15:59:50;5.83;;;3.30;;
38037;SDS011;23843;51.320;12.340;2024-03-07T16:02:17;5.97;;;3.70;;
38037;SDS011;23843;51.320;12.340;2024-03-07T16:04:43;6.23;;;3.90;;
38037;SDS011;23843;51.320;12.340;2024-03-07T16:07:08;8.33;;;5.10;;
38037;SDS011;23843;51.320;12.340;2024-03-07T16:09:34;7.60;;;4.50;;
38037;SDS011;23843;51.320;12.340;2024-03-07T16:11:59;6.40;;;3.60;;
38037;SDS011;23843;51.320;12.340;2024-03-07T16:14:25;10.13;;;5.30;;
38037;SDS011;23843;51.320;12.340;2024-03-07T16:16:50;7.93;;;4.77;;
38037;SDS011;23843;51.320;12.340;2024-03-07T16:19:17;6.43;;;4.27;;